NCAR-RAP Real-Time Weather Data

Output produced by METARs form (12 August 2020  18:32 UTC)
found at http://weather.rap.ucar.edu/surface/
 
RJTT 121800Z 34005KT 9999 FEW015 28/26 Q1009 NOSIG RMK 1CU015 A2982
 
RJAA 121800Z VRB02KT 9999 FEW030 BKN/// 26/25 Q1010 NOSIG RMK 1CU030 A2982
 
 
RJAH 121800Z 34001KT 9999 FEW020 SCT/// 25/24 Q1009
 
RJGG 121800Z 27006KT 9999 FEW030 SCT/// 29/25 Q1011 NOSIG
 
RJNK 121800Z 20004KT 9999 SCT020 BKN030 BKN080 26/25 Q1011
 
 
 
 
 
 
 
 
 
 
 
 
 
RJTT 121800Z 34005KT 9999 FEW015 28/26 Q1009 NOSIG RMK 1CU015 A2982
 
 
RJTY 121756Z AUTO 00000KT 10SM CLR 25/24 A2989 RMK AO2 SLP117 T02540238 10268 20253 57012 FZRANO $